Dublin, NC (28332)

8:44 AM EST on February 26, 2017 (GMT -0500)
Miller Place, White Lake | | Change Station

Elev 62 ft 34.63 °N, 78.50 °W | Updated 8 seconds ago

Clear
Clear
46.8 °F
Feels Like 42 °F
N
9.2
Wind Variable Wind from West
Gusts 9.8 mph

Today
High -- | Low -- °F
--% Chance of Precip.
Yesterday
High -- | Low -- °F
Precip. -- in
Pressure 30.14 in
Visibility 10.0 miles
Clouds Clear
Windchill 42 °F
Dew Point 12 °F
Humidity 24%
Rainfall 0.00 in
Snow Depth Not available.
6:47 AM 6:08 PM
Waning Crescent, 0% visible
METAR KLBT 261254Z AUTO 34006KT 10SM CLR 07/M06 A3015 RMK AO2 SLP207 T00671061 $
Pressure 30.14 in
Visibility 10.0 miles
Clouds Clear
Windchill 42 °F
Dew Point 12 °F
Humidity 24%
Rainfall 0.00 in
Snow Depth Not available.
6:47 AM 6:08 PM
Waning Crescent, 0% visible
METAR KLBT 261254Z AUTO 34006KT 10SM CLR 07/M06 A3015 RMK AO2 SLP207 T00671061 $

Get Your Daily Forecast Email!

Thanks for signing up!

Be on the lookout for a verification email in your inbox.

You'll start receiving the daily forecast at 8 AM.

×

10-Day Weather Forecast

Almanac

Astronomy

Feb. 26, 2017 Rise Set
Actual Time
Civil Twilight
Nautical Twilight
Astronomical Twilight
Moon
Length of Visible Light
Length of Day
Tomorrow will be .
, % of the Moon is Illuminated

Today's Extremes

State Highs State Lows

Community

WunderPhotos

Upload Photos

1,962,540 photos uploaded!

WunderBlog® & News

Nearby

Air Quality

  Air Quality AQ Index Pollutant
Not available.

Snow Depth

Station Depth Elevation

Earthquake Activity

City Distance Mag. Time & Date
Minimum magnitude displayed is 2.5.

Coastal Water Temperatures

Place Temperature

Stations

Nearby Weather Stations

Station Location Temp. Windchill Dew Point Humidity Wind Precip. Elev Updated Type
                   

Watches & Warnings

There are currently no watches in effect.